sensor_id;sensor_type;location;lat;lon;timestamp;P1;durP1;ratioP1;P2;durP2;ratioP2
75758;SDS011;64371;47.566;19.086;2023-05-14T00:01:03;10.55;;;7.63;;
75758;SDS011;64371;47.566;19.086;2023-05-14T00:04:06;10.93;;;7.35;;
75758;SDS011;64371;47.566;19.086;2023-05-14T00:07:08;10.93;;;7.55;;
75758;SDS011;64371;47.566;19.086;2023-05-14T00:10:11;10.07;;;7.40;;
75758;SDS011;64371;47.566;19.086;2023-05-14T00:13:13;10.10;;;7.30;;
75758;SDS011;64371;47.566;19.086;2023-05-14T00:16:15;10.95;;;6.95;;
75758;SDS011;64371;47.566;19.086;2023-05-14T00:19:18;12.48;;;7.68;;
75758;SDS011;64371;47.566;19.086;2023-05-14T00:22:20;8.88;;;7.18;;
75758;SDS011;64371;47.566;19.086;2023-05-14T00:25:22;10.38;;;7.70;;
75758;SDS011;64371;47.566;19.086;2023-05-14T00:28:24;11.27;;;7.40;;
75758;SDS011;64371;47.566;19.086;2023-05-14T00:31:27;9.10;;;7.00;;
75758;SDS011;64371;47.566;19.086;2023-05-14T00:34:29;10.48;;;7.22;;
75758;SDS011;64371;47.566;19.086;2023-05-14T00:37:32;10.52;;;7.47;;
75758;SDS011;64371;47.566;19.086;2023-05-14T00:40:34;9.43;;;7.15;;
75758;SDS011;64371;47.566;19.086;2023-05-14T00:43:37;10.57;;;7.60;;
75758;SDS011;64371;47.566;19.086;2023-05-14T00:46:39;8.80;;;7.25;;
75758;SDS011;64371;47.566;19.086;2023-05-14T00:49:41;11.48;;;7.38;;
75758;SDS011;64371;47.566;19.086;2023-05-14T00:52:44;9.75;;;7.57;;
75758;SDS011;64371;47.566;19.086;2023-05-14T00:55:48;9.55;;;6.80;;
75758;SDS011;64371;47.566;19.086;2023-05-14T00:58:51;9.70;;;7.40;;
75758;SDS011;64371;47.566;19.086;2023-05-14T01:01:53;10.18;;;7.20;;
75758;SDS011;64371;47.566;19.086;2023-05-14T01:04:55;8.50;;;6.28;;
75758;SDS011;64371;47.566;19.086;2023-05-14T01:08:44;9.80;;;6.78;;
75758;SDS011;64371;47.566;19.086;2023-05-14T01:11:54;9.50;;;7.20;;
75758;SDS011;64371;47.566;19.086;2023-05-14T01:15:00;10.00;;;6.73;;
75758;SDS011;64371;47.566;19.086;2023-05-14T01:18:17;9.27;;;6.32;;
75758;SDS011;64371;47.566;19.086;2023-05-14T01:21:36;11.95;;;6.88;;
75758;SDS011;64371;47.566;19.086;2023-05-14T01:24:41;12.60;;;6.45;;
75758;SDS011;64371;47.566;19.086;2023-05-14T01:31:36;9.23;;;6.80;;
75758;SDS011;64371;47.566;19.086;2023-05-14T01:34:34;10.15;;;6.50;;
75758;SDS011;64371;47.566;19.086;2023-05-14T01:37:37;8.32;;;6.45;;
75758;SDS011;64371;47.566;19.086;2023-05-14T01:40:44;10.40;;;6.85;;
75758;SDS011;64371;47.566;19.086;2023-05-14T01:43:47;9.10;;;6.95;;
75758;SDS011;64371;47.566;19.086;2023-05-14T01:46:50;10.47;;;6.67;;
75758;SDS011;64371;47.566;19.086;2023-05-14T01:49:52;9.57;;;7.00;;
75758;SDS011;64371;47.566;19.086;2023-05-14T01:52:54;11.02;;;7.18;;
75758;SDS011;64371;47.566;19.086;2023-05-14T01:56:01;8.98;;;6.90;;
75758;SDS011;64371;47.566;19.086;2023-05-14T01:59:03;8.55;;;6.75;;
75758;SDS011;64371;47.566;19.086;2023-05-14T02:02:06;9.63;;;6.97;;
75758;SDS011;64371;47.566;19.086;2023-05-14T02:05:09;11.13;;;6.60;;
75758;SDS011;64371;47.566;19.086;2023-05-14T02:08:12;8.60;;;7.07;;
75758;SDS011;64371;47.566;19.086;2023-05-14T02:11:14;12.50;;;6.70;;
75758;SDS011;64371;47.566;19.086;2023-05-14T02:14:17;10.43;;;6.95;;
75758;SDS011;64371;47.566;19.086;2023-05-14T02:17:19;10.17;;;7.17;;
75758;SDS011;64371;47.566;19.086;2023-05-14T02:20:21;9.85;;;6.88;;
75758;SDS011;64371;47.566;19.086;2023-05-14T02:23:24;9.82;;;6.35;;
75758;SDS011;64371;47.566;19.086;2023-05-14T02:26:42;10.00;;;6.68;;
75758;SDS011;64371;47.566;19.086;2023-05-14T02:29:44;9.40;;;6.60;;
75758;SDS011;64371;47.566;19.086;2023-05-14T02:32:46;9.63;;;6.43;;
75758;SDS011;64371;47.566;19.086;2023-05-14T02:35:49;8.35;;;6.50;;
75758;SDS011;64371;47.566;19.086;2023-05-14T02:38:51;8.50;;;6.10;;
75758;SDS011;64371;47.566;19.086;2023-05-14T02:41:55;8.13;;;5.90;;
75758;SDS011;64371;47.566;19.086;2023-05-14T02:44:58;10.88;;;6.00;;
75758;SDS011;64371;47.566;19.086;2023-05-14T02:48:00;9.33;;;5.97;;
75758;SDS011;64371;47.566;19.086;2023-05-14T02:51:04;7.95;;;6.38;;
75758;SDS011;64371;47.566;19.086;2023-05-14T02:54:06;10.00;;;6.20;;
75758;SDS011;64371;47.566;19.086;2023-05-14T02:57:09;8.32;;;6.20;;
75758;SDS011;64371;47.566;19.086;2023-05-14T03:00:11;8.73;;;6.57;;
75758;SDS011;64371;47.566;19.086;2023-05-14T03:03:14;9.53;;;6.20;;
75758;SDS011;64371;47.566;19.086;2023-05-14T03:06:17;8.13;;;6.00;;
75758;SDS011;64371;47.566;19.086;2023-05-14T03:09:19;8.45;;;6.65;;
75758;SDS011;64371;47.566;19.086;2023-05-14T03:12:21;10.45;;;6.65;;
75758;SDS011;64371;47.566;19.086;2023-05-14T03:15:24;10.15;;;7.90;;
75758;SDS011;64371;47.566;19.086;2023-05-14T03:18:26;9.53;;;6.77;;
75758;SDS011;64371;47.566;19.086;2023-05-14T03:21:31;10.23;;;6.13;;
75758;SDS011;64371;47.566;19.086;2023-05-14T03:24:36;8.95;;;6.10;;
75758;SDS011;64371;47.566;19.086;2023-05-14T03:27:41;7.40;;;5.82;;
75758;SDS011;64371;47.566;19.086;2023-05-14T03:30:44;8.60;;;5.90;;
75758;SDS011;64371;47.566;19.086;2023-05-14T03:33:46;8.00;;;5.60;;
75758;SDS011;64371;47.566;19.086;2023-05-14T03:36:49;7.70;;;5.20;;
75758;SDS011;64371;47.566;19.086;2023-05-14T03:39:51;7.07;;;5.63;;
75758;SDS011;64371;47.566;19.086;2023-05-14T03:42:53;8.50;;;5.50;;
75758;SDS011;64371;47.566;19.086;2023-05-14T03:45:57;7.20;;;5.50;;
75758;SDS011;64371;47.566;19.086;2023-05-14T03:48:59;7.63;;;5.30;;
75758;SDS011;64371;47.566;19.086;2023-05-14T03:52:02;7.55;;;5.43;;
75758;SDS011;64371;47.566;19.086;2023-05-14T03:55:05;9.18;;;5.25;;
75758;SDS011;64371;47.566;19.086;2023-05-14T03:58:07;8.23;;;5.80;;
75758;SDS011;64371;47.566;19.086;2023-05-14T04:01:15;7.38;;;5.10;;
75758;SDS011;64371;47.566;19.086;2023-05-14T04:04:17;7.40;;;5.57;;
75758;SDS011;64371;47.566;19.086;2023-05-14T04:07:20;6.63;;;5.43;;
75758;SDS011;64371;47.566;19.086;2023-05-14T04:10:22;8.40;;;5.20;;
75758;SDS011;64371;47.566;19.086;2023-05-14T04:13:25;10.90;;;6.13;;
75758;SDS011;64371;47.566;19.086;2023-05-14T04:16:28;7.03;;;5.32;;
75758;SDS011;64371;47.566;19.086;2023-05-14T04:19:30;5.93;;;5.17;;
75758;SDS011;64371;47.566;19.086;2023-05-14T04:22:32;7.85;;;5.03;;
75758;SDS011;64371;47.566;19.086;2023-05-14T04:25:35;8.35;;;5.45;;
75758;SDS011;64371;47.566;19.086;2023-05-14T04:28:37;7.70;;;5.35;;
75758;SDS011;64371;47.566;19.086;2023-05-14T04:31:39;6.57;;;4.97;;
75758;SDS011;64371;47.566;19.086;2023-05-14T04:34:43;8.87;;;5.63;;
75758;SDS011;64371;47.566;19.086;2023-05-14T04:37:45;6.40;;;4.68;;
75758;SDS011;64371;47.566;19.086;2023-05-14T04:40:47;6.40;;;4.95;;
75758;SDS011;64371;47.566;19.086;2023-05-14T04:43:50;6.60;;;5.10;;
75758;SDS011;64371;47.566;19.086;2023-05-14T04:46:52;7.80;;;4.90;;
75758;SDS011;64371;47.566;19.086;2023-05-14T04:49:54;9.57;;;5.30;;
75758;SDS011;64371;47.566;19.086;2023-05-14T04:52:57;6.95;;;4.50;;
75758;SDS011;64371;47.566;19.086;2023-05-14T04:55:59;6.90;;;4.50;;
75758;SDS011;64371;47.566;19.086;2023-05-14T04:59:01;6.30;;;4.70;;
75758;SDS011;64371;47.566;19.086;2023-05-14T05:02:03;6.00;;;4.72;;
75758;SDS011;64371;47.566;19.086;2023-05-14T05:05:06;7.67;;;4.90;;
75758;SDS011;64371;47.566;19.086;2023-05-14T05:08:09;8.25;;;4.40;;
75758;SDS011;64371;47.566;19.086;2023-05-14T05:11:12;6.43;;;5.00;;
75758;SDS011;64371;47.566;19.086;2023-05-14T05:14:14;6.78;;;4.90;;
75758;SDS011;64371;47.566;19.086;2023-05-14T05:17:17;7.20;;;4.35;;
75758;SDS011;64371;47.566;19.086;2023-05-14T05:20:19;7.50;;;4.70;;
75758;SDS011;64371;47.566;19.086;2023-05-14T05:23:21;8.43;;;5.13;;
75758;SDS011;64371;47.566;19.086;2023-05-14T05:26:25;6.57;;;4.53;;
75758;SDS011;64371;47.566;19.086;2023-05-14T05:29:28;5.60;;;4.70;;
75758;SDS011;64371;47.566;19.086;2023-05-14T05:32:30;6.25;;;4.63;;
75758;SDS011;64371;47.566;19.086;2023-05-14T05:35:32;9.57;;;5.50;;
75758;SDS011;64371;47.566;19.086;2023-05-14T05:38:37;8.43;;;5.00;;
75758;SDS011;64371;47.566;19.086;2023-05-14T05:41:39;6.80;;;4.72;;
75758;SDS011;64371;47.566;19.086;2023-05-14T05:44:42;9.10;;;4.72;;
75758;SDS011;64371;47.566;19.086;2023-05-14T05:47:44;7.00;;;4.63;;
75758;SDS011;64371;47.566;19.086;2023-05-14T05:50:46;6.20;;;4.47;;
75758;SDS011;64371;47.566;19.086;2023-05-14T05:53:50;8.77;;;4.65;;
75758;SDS011;64371;47.566;19.086;2023-05-14T05:56:52;7.50;;;5.00;;
75758;SDS011;64371;47.566;19.086;2023-05-14T05:59:54;7.28;;;4.95;;
75758;SDS011;64371;47.566;19.086;2023-05-14T06:02:57;6.55;;;4.53;;
75758;SDS011;64371;47.566;19.086;2023-05-14T06:06:00;6.37;;;4.87;;
75758;SDS011;64371;47.566;19.086;2023-05-14T06:09:02;5.95;;;4.65;;
75758;SDS011;64371;47.566;19.086;2023-05-14T06:12:05;6.38;;;4.85;;
75758;SDS011;64371;47.566;19.086;2023-05-14T06:15:08;6.07;;;4.70;;
75758;SDS011;64371;47.566;19.086;2023-05-14T06:18:10;5.78;;;4.47;;
75758;SDS011;64371;47.566;19.086;2023-05-14T06:21:13;6.10;;;4.70;;
75758;SDS011;64371;47.566;19.086;2023-05-14T06:24:15;6.50;;;4.88;;
75758;SDS011;64371;47.566;19.086;2023-05-14T06:27:21;5.38;;;3.88;;
75758;SDS011;64371;47.566;19.086;2023-05-14T06:30:23;7.10;;;4.63;;
75758;SDS011;64371;47.566;19.086;2023-05-14T06:33:26;6.43;;;4.80;;
75758;SDS011;64371;47.566;19.086;2023-05-14T06:36:32;6.57;;;4.63;;
75758;SDS011;64371;47.566;19.086;2023-05-14T06:39:37;6.32;;;4.82;;
75758;SDS011;64371;47.566;19.086;2023-05-14T06:42:40;5.78;;;4.10;;
75758;SDS011;64371;47.566;19.086;2023-05-14T06:45:49;5.80;;;4.60;;
75758;SDS011;64371;47.566;19.086;2023-05-14T06:48:52;7.35;;;4.93;;
75758;SDS011;64371;47.566;19.086;2023-05-14T06:51:57;7.37;;;4.97;;
75758;SDS011;64371;47.566;19.086;2023-05-14T06:54:59;7.20;;;5.40;;
75758;SDS011;64371;47.566;19.086;2023-05-14T06:58:02;7.65;;;5.57;;
75758;SDS011;64371;47.566;19.086;2023-05-14T07:01:04;7.10;;;4.90;;
75758;SDS011;64371;47.566;19.086;2023-05-14T07:04:07;5.85;;;4.82;;
75758;SDS011;64371;47.566;19.086;2023-05-14T07:07:09;9.33;;;6.07;;
75758;SDS011;64371;47.566;19.086;2023-05-14T07:10:16;6.82;;;5.40;;
75758;SDS011;64371;47.566;19.086;2023-05-14T07:13:18;6.57;;;5.10;;
75758;SDS011;64371;47.566;19.086;2023-05-14T07:16:20;7.80;;;5.20;;
75758;SDS011;64371;47.566;19.086;2023-05-14T07:19:23;8.18;;;5.78;;
75758;SDS011;64371;47.566;19.086;2023-05-14T13:14:11;12.40;;;9.70;;
75758;SDS011;64371;47.566;19.086;2023-05-14T13:17:13;14.27;;;9.40;;
75758;SDS011;64371;47.566;19.086;2023-05-14T13:20:16;14.50;;;8.95;;
75758;SDS011;64371;47.566;19.086;2023-05-14T13:23:19;15.27;;;8.60;;
75758;SDS011;64371;47.566;19.086;2023-05-14T13:26:22;11.65;;;8.73;;
75758;SDS011;64371;47.566;19.086;2023-05-14T13:29:27;9.55;;;6.78;;
75758;SDS011;64371;47.566;19.086;2023-05-14T13:32:32;9.55;;;7.57;;
75758;SDS011;64371;47.566;19.086;2023-05-14T13:35:34;11.20;;;8.50;;
75758;SDS011;64371;47.566;19.086;2023-05-14T13:38:37;13.13;;;9.00;;
75758;SDS011;64371;47.566;19.086;2023-05-14T13:41:40;12.85;;;8.90;;
75758;SDS011;64371;47.566;19.086;2023-05-14T13:44:42;12.55;;;8.25;;
75758;SDS011;64371;47.566;19.086;2023-05-14T13:47:45;11.27;;;7.95;;
75758;SDS011;64371;47.566;19.086;2023-05-14T13:50:47;11.50;;;8.02;;
75758;SDS011;64371;47.566;19.086;2023-05-14T13:53:50;10.67;;;8.30;;
75758;SDS011;64371;47.566;19.086;2023-05-14T13:56:55;13.13;;;8.48;;
75758;SDS011;64371;47.566;19.086;2023-05-14T13:59:57;11.23;;;8.45;;
75758;SDS011;64371;47.566;19.086;2023-05-14T14:02:59;16.98;;;10.48;;
75758;SDS011;64371;47.566;19.086;2023-05-14T14:06:02;15.80;;;10.52;;
75758;SDS011;64371;47.566;19.086;2023-05-14T14:09:04;15.37;;;10.43;;
75758;SDS011;64371;47.566;19.086;2023-05-14T14:12:07;14.75;;;10.20;;
75758;SDS011;64371;47.566;19.086;2023-05-14T14:15:10;16.50;;;10.88;;
75758;SDS011;64371;47.566;19.086;2023-05-14T14:18:12;13.73;;;8.43;;
75758;SDS011;64371;47.566;19.086;2023-05-14T14:21:14;11.15;;;7.65;;
75758;SDS011;64371;47.566;19.086;2023-05-14T14:24:19;9.87;;;5.80;;
75758;SDS011;64371;47.566;19.086;2023-05-14T14:27:21;10.55;;;6.65;;
75758;SDS011;64371;47.566;19.086;2023-05-14T14:30:23;10.27;;;7.35;;
75758;SDS011;64371;47.566;19.086;2023-05-14T14:33:26;12.05;;;7.55;;
75758;SDS011;64371;47.566;19.086;2023-05-14T14:36:28;14.05;;;7.60;;
75758;SDS011;64371;47.566;19.086;2023-05-14T14:39:33;10.77;;;7.63;;
75758;SDS011;64371;47.566;19.086;2023-05-14T14:42:35;13.23;;;8.93;;
75758;SDS011;64371;47.566;19.086;2023-05-14T14:45:38;9.52;;;6.15;;
75758;SDS011;64371;47.566;19.086;2023-05-14T14:48:41;11.50;;;6.72;;
75758;SDS011;64371;47.566;19.086;2023-05-14T14:51:43;11.27;;;6.93;;
75758;SDS011;64371;47.566;19.086;2023-05-14T14:54:45;7.83;;;5.33;;
75758;SDS011;64371;47.566;19.086;2023-05-14T14:57:48;10.43;;;6.20;;
75758;SDS011;64371;47.566;19.086;2023-05-14T15:00:52;11.18;;;6.35;;
75758;SDS011;64371;47.566;19.086;2023-05-14T15:03:56;11.70;;;7.03;;
75758;SDS011;64371;47.566;19.086;2023-05-14T15:06:58;7.88;;;5.75;;
75758;SDS011;64371;47.566;19.086;2023-05-14T15:10:01;7.87;;;5.23;;
75758;SDS011;64371;47.566;19.086;2023-05-14T15:13:05;6.25;;;4.38;;
75758;SDS011;64371;47.566;19.086;2023-05-14T15:16:08;6.40;;;3.45;;
75758;SDS011;64371;47.566;19.086;2023-05-14T15:19:10;7.72;;;5.07;;
75758;SDS011;64371;47.566;19.086;2023-05-14T15:22:13;5.78;;;3.75;;
75758;SDS011;64371;47.566;19.086;2023-05-14T15:25:15;8.07;;;5.40;;
75758;SDS011;64371;47.566;19.086;2023-05-14T15:28:17;4.82;;;3.33;;
75758;SDS011;64371;47.566;19.086;2023-05-14T15:31:20;8.63;;;5.45;;
75758;SDS011;64371;47.566;19.086;2023-05-14T15:34:22;9.40;;;5.47;;
75758;SDS011;64371;47.566;19.086;2023-05-14T15:37:25;8.02;;;4.88;;
75758;SDS011;64371;47.566;19.086;2023-05-14T15:40:27;8.17;;;6.00;;
75758;SDS011;64371;47.566;19.086;2023-05-14T15:43:30;9.10;;;4.65;;
75758;SDS011;64371;47.566;19.086;2023-05-14T15:46:32;10.80;;;5.68;;
75758;SDS011;64371;47.566;19.086;2023-05-14T15:49:35;6.43;;;4.43;;
75758;SDS011;64371;47.566;19.086;2023-05-14T15:52:37;10.00;;;6.55;;
75758;SDS011;64371;47.566;19.086;2023-05-14T15:55:41;8.17;;;5.20;;
75758;SDS011;64371;47.566;19.086;2023-05-14T15:58:44;15.35;;;5.40;;
75758;SDS011;64371;47.566;19.086;2023-05-14T16:01:46;8.00;;;5.65;;
75758;SDS011;64371;47.566;19.086;2023-05-14T16:04:48;7.65;;;5.75;;
75758;SDS011;64371;47.566;19.086;2023-05-14T16:07:51;11.32;;;7.53;;
75758;SDS011;64371;47.566;19.086;2023-05-14T16:10:53;10.00;;;7.43;;
75758;SDS011;64371;47.566;19.086;2023-05-14T16:13:55;8.98;;;6.70;;
75758;SDS011;64371;47.566;19.086;2023-05-14T16:16:59;7.68;;;5.60;;
75758;SDS011;64371;47.566;19.086;2023-05-14T16:20:02;9.02;;;4.95;;
75758;SDS011;64371;47.566;19.086;2023-05-14T16:23:05;6.70;;;4.45;;
75758;SDS011;64371;47.566;19.086;2023-05-14T16:26:08;7.20;;;5.53;;
75758;SDS011;64371;47.566;19.086;2023-05-14T16:29:10;6.43;;;4.10;;
75758;SDS011;64371;47.566;19.086;2023-05-14T16:32:13;4.88;;;3.45;;
75758;SDS011;64371;47.566;19.086;2023-05-14T16:35:15;7.15;;;5.18;;
75758;SDS011;64371;47.566;19.086;2023-05-14T16:38:17;7.30;;;5.03;;
75758;SDS011;64371;47.566;19.086;2023-05-14T16:41:20;7.40;;;5.53;;
75758;SDS011;64371;47.566;19.086;2023-05-14T16:44:24;9.00;;;5.65;;
75758;SDS011;64371;47.566;19.086;2023-05-14T16:47:27;8.05;;;5.28;;
75758;SDS011;64371;47.566;19.086;2023-05-14T16:50:29;7.88;;;5.68;;
75758;SDS011;64371;47.566;19.086;2023-05-14T16:53:31;7.45;;;6.03;;
75758;SDS011;64371;47.566;19.086;2023-05-14T16:56:34;6.77;;;5.23;;
75758;SDS011;64371;47.566;19.086;2023-05-14T16:59:37;6.10;;;4.75;;
75758;SDS011;64371;47.566;19.086;2023-05-14T17:02:40;5.15;;;4.05;;
75758;SDS011;64371;47.566;19.086;2023-05-14T17:05:42;5.68;;;3.30;;
75758;SDS011;64371;47.566;19.086;2023-05-14T17:08:45;3.53;;;2.80;;
75758;SDS011;64371;47.566;19.086;2023-05-14T17:11:47;7.03;;;4.83;;
75758;SDS011;64371;47.566;19.086;2023-05-14T17:14:49;6.18;;;4.82;;
75758;SDS011;64371;47.566;19.086;2023-05-14T17:17:52;6.88;;;5.18;;
75758;SDS011;64371;47.566;19.086;2023-05-14T17:20:55;7.82;;;5.07;;
75758;SDS011;64371;47.566;19.086;2023-05-14T17:23:57;7.70;;;4.80;;
75758;SDS011;64371;47.566;19.086;2023-05-14T17:26:59;3.67;;;2.50;;
75758;SDS011;64371;47.566;19.086;2023-05-14T17:30:02;9.57;;;4.80;;
75758;SDS011;64371;47.566;19.086;2023-05-14T17:33:04;6.82;;;3.53;;
75758;SDS011;64371;47.566;19.086;2023-05-14T17:36:07;8.25;;;5.35;;
75758;SDS011;64371;47.566;19.086;2023-05-14T17:39:09;7.82;;;5.60;;
75758;SDS011;64371;47.566;19.086;2023-05-14T17:42:11;7.00;;;4.93;;
75758;SDS011;64371;47.566;19.086;2023-05-14T17:45:14;7.72;;;5.30;;
75758;SDS011;64371;47.566;19.086;2023-05-14T17:48:24;9.15;;;6.43;;
75758;SDS011;64371;47.566;19.086;2023-05-14T17:51:27;9.68;;;6.90;;
75758;SDS011;64371;47.566;19.086;2023-05-14T17:54:29;10.80;;;7.80;;
75758;SDS011;64371;47.566;19.086;2023-05-14T17:57:31;14.30;;;8.03;;
75758;SDS011;64371;47.566;19.086;2023-05-14T18:00:36;9.90;;;6.88;;
75758;SDS011;64371;47.566;19.086;2023-05-14T18:03:38;10.40;;;7.30;;
75758;SDS011;64371;47.566;19.086;2023-05-14T18:06:41;11.45;;;7.47;;
75758;SDS011;64371;47.566;19.086;2023-05-14T18:09:45;10.48;;;7.50;;
75758;SDS011;64371;47.566;19.086;2023-05-14T18:12:47;11.03;;;7.33;;
75758;SDS011;64371;47.566;19.086;2023-05-14T18:15:49;11.68;;;7.72;;
75758;SDS011;64371;47.566;19.086;2023-05-14T18:18:55;9.45;;;7.47;;
75758;SDS011;64371;47.566;19.086;2023-05-14T18:21:57;12.07;;;7.93;;
75758;SDS011;64371;47.566;19.086;2023-05-14T18:25:00;13.32;;;8.65;;
75758;SDS011;64371;47.566;19.086;2023-05-14T18:28:03;10.87;;;8.23;;
75758;SDS011;64371;47.566;19.086;2023-05-14T18:31:06;11.73;;;8.48;;
75758;SDS011;64371;47.566;19.086;2023-05-14T18:34:08;12.15;;;9.40;;
75758;SDS011;64371;47.566;19.086;2023-05-14T18:37:11;11.68;;;8.70;;
75758;SDS011;64371;47.566;19.086;2023-05-14T18:40:13;12.98;;;9.00;;
75758;SDS011;64371;47.566;19.086;2023-05-14T18:43:19;11.80;;;8.40;;
75758;SDS011;64371;47.566;19.086;2023-05-14T18:46:21;6.45;;;3.90;;
75758;SDS011;64371;47.566;19.086;2023-05-14T18:49:24;8.60;;;6.40;;
75758;SDS011;64371;47.566;19.086;2023-05-14T18:52:27;9.93;;;6.70;;
75758;SDS011;64371;47.566;19.086;2023-05-14T18:55:29;10.23;;;7.55;;
75758;SDS011;64371;47.566;19.086;2023-05-14T18:58:32;10.70;;;8.27;;
75758;SDS011;64371;47.566;19.086;2023-05-14T19:01:34;12.02;;;8.30;;
75758;SDS011;64371;47.566;19.086;2023-05-14T19:04:37;10.35;;;7.32;;
75758;SDS011;64371;47.566;19.086;2023-05-14T19:07:53;11.85;;;8.23;;
75758;SDS011;64371;47.566;19.086;2023-05-14T19:10:55;12.27;;;8.52;;
75758;SDS011;64371;47.566;19.086;2023-05-14T19:13:58;11.33;;;8.17;;
75758;SDS011;64371;47.566;19.086;2023-05-14T19:17:01;11.52;;;8.25;;
75758;SDS011;64371;47.566;19.086;2023-05-14T19:20:04;11.85;;;8.48;;
75758;SDS011;64371;47.566;19.086;2023-05-14T19:23:07;12.30;;;8.77;;
75758;SDS011;64371;47.566;19.086;2023-05-14T19:26:09;12.50;;;8.80;;
75758;SDS011;64371;47.566;19.086;2023-05-14T19:29:11;12.60;;;9.03;;
75758;SDS011;64371;47.566;19.086;2023-05-14T19:32:14;14.40;;;10.57;;
75758;SDS011;64371;47.566;19.086;2023-05-14T19:35:16;15.35;;;11.30;;
75758;SDS011;64371;47.566;19.086;2023-05-14T19:38:18;15.27;;;10.88;;
75758;SDS011;64371;47.566;19.086;2023-05-14T19:41:21;15.95;;;11.50;;
75758;SDS011;64371;47.566;19.086;2023-05-14T19:44:24;17.63;;;11.83;;
75758;SDS011;64371;47.566;19.086;2023-05-14T19:47:26;16.58;;;10.15;;
75758;SDS011;64371;47.566;19.086;2023-05-14T19:50:29;15.45;;;10.10;;
75758;SDS011;64371;47.566;19.086;2023-05-14T19:53:31;13.55;;;9.88;;
75758;SDS011;64371;47.566;19.086;2023-05-14T19:56:34;13.32;;;10.00;;
75758;SDS011;64371;47.566;19.086;2023-05-14T19:59:36;14.57;;;10.37;;
75758;SDS011;64371;47.566;19.086;2023-05-14T20:02:40;14.48;;;10.20;;
75758;SDS011;64371;47.566;19.086;2023-05-14T20:05:43;15.43;;;11.18;;
75758;SDS011;64371;47.566;19.086;2023-05-14T20:08:46;16.30;;;10.90;;
75758;SDS011;64371;47.566;19.086;2023-05-14T20:11:48;15.05;;;9.50;;
75758;SDS011;64371;47.566;19.086;2023-05-14T20:14:51;13.60;;;9.47;;
75758;SDS011;64371;47.566;19.086;2023-05-14T20:17:53;12.13;;;8.27;;
75758;SDS011;64371;47.566;19.086;2023-05-14T20:20:55;11.02;;;8.07;;
75758;SDS011;64371;47.566;19.086;2023-05-14T20:23:58;11.95;;;8.85;;
75758;SDS011;64371;47.566;19.086;2023-05-14T20:27:00;13.73;;;8.90;;
75758;SDS011;64371;47.566;19.086;2023-05-14T20:30:03;12.73;;;7.87;;
75758;SDS011;64371;47.566;19.086;2023-05-14T20:33:05;11.27;;;8.43;;
75758;SDS011;64371;47.566;19.086;2023-05-14T20:36:08;12.68;;;8.88;;
75758;SDS011;64371;47.566;19.086;2023-05-14T20:39:10;10.77;;;8.25;;
75758;SDS011;64371;47.566;19.086;2023-05-14T20:42:13;10.13;;;6.95;;
75758;SDS011;64371;47.566;19.086;2023-05-14T20:45:15;9.67;;;6.57;;
75758;SDS011;64371;47.566;19.086;2023-05-14T20:48:17;8.73;;;6.47;;
75758;SDS011;64371;47.566;19.086;2023-05-14T20:51:22;9.18;;;7.32;;
75758;SDS011;64371;47.566;19.086;2023-05-14T20:54:24;8.85;;;6.22;;
75758;SDS011;64371;47.566;19.086;2023-05-14T20:57:27;7.63;;;5.75;;
75758;SDS011;64371;47.566;19.086;2023-05-14T21:00:29;9.07;;;6.47;;
75758;SDS011;64371;47.566;19.086;2023-05-14T21:03:31;9.68;;;7.35;;
75758;SDS011;64371;47.566;19.086;2023-05-14T21:06:34;11.23;;;8.32;;
75758;SDS011;64371;47.566;19.086;2023-05-14T21:09:36;11.43;;;8.88;;
75758;SDS011;64371;47.566;19.086;2023-05-14T21:12:38;12.73;;;9.23;;
75758;SDS011;64371;47.566;19.086;2023-05-14T21:15:43;11.37;;;8.23;;
75758;SDS011;64371;47.566;19.086;2023-05-14T21:18:45;13.93;;;10.05;;
75758;SDS011;64371;47.566;19.086;2023-05-14T21:21:48;17.33;;;9.90;;
75758;SDS011;64371;47.566;19.086;2023-05-14T21:24:50;13.50;;;9.60;;
75758;SDS011;64371;47.566;19.086;2023-05-14T21:27:52;16.38;;;9.70;;
75758;SDS011;64371;47.566;19.086;2023-05-14T21:30:55;15.93;;;9.90;;
75758;SDS011;64371;47.566;19.086;2023-05-14T21:33:57;14.63;;;9.75;;
75758;SDS011;64371;47.566;19.086;2023-05-14T21:36:59;15.25;;;9.98;;
75758;SDS011;64371;47.566;19.086;2023-05-14T21:40:02;18.13;;;10.48;;
75758;SDS011;64371;47.566;19.086;2023-05-14T21:43:04;14.52;;;10.15;;
75758;SDS011;64371;47.566;19.086;2023-05-14T21:46:07;17.83;;;10.53;;
75758;SDS011;64371;47.566;19.086;2023-05-14T21:49:09;14.05;;;10.25;;
75758;SDS011;64371;47.566;19.086;2023-05-14T21:52:11;16.60;;;9.52;;
75758;SDS011;64371;47.566;19.086;2023-05-14T21:55:14;11.88;;;9.25;;
75758;SDS011;64371;47.566;19.086;2023-05-14T21:58:16;12.77;;;8.60;;
75758;SDS011;64371;47.566;19.086;2023-05-14T22:01:18;10.33;;;7.83;;
75758;SDS011;64371;47.566;19.086;2023-05-14T22:04:21;10.43;;;8.15;;
75758;SDS011;64371;47.566;19.086;2023-05-14T22:07:23;9.27;;;7.72;;
75758;SDS011;64371;47.566;19.086;2023-05-14T22:10:26;11.60;;;6.97;;
75758;SDS011;64371;47.566;19.086;2023-05-14T22:13:28;5.70;;;4.25;;
75758;SDS011;64371;47.566;19.086;2023-05-14T22:16:31;8.27;;;5.97;;
75758;SDS011;64371;47.566;19.086;2023-05-14T22:19:33;7.68;;;6.00;;
75758;SDS011;64371;47.566;19.086;2023-05-14T22:22:36;7.25;;;5.85;;
75758;SDS011;64371;47.566;19.086;2023-05-14T22:25:38;7.68;;;6.10;;
75758;SDS011;64371;47.566;19.086;2023-05-14T22:28:41;9.57;;;5.78;;
75758;SDS011;64371;47.566;19.086;2023-05-14T22:31:44;7.17;;;5.90;;
75758;SDS011;64371;47.566;19.086;2023-05-14T22:34:46;7.18;;;4.88;;
75758;SDS011;64371;47.566;19.086;2023-05-14T22:37:49;6.63;;;5.10;;
75758;SDS011;64371;47.566;19.086;2023-05-14T22:40:51;7.05;;;5.80;;
75758;SDS011;64371;47.566;19.086;2023-05-14T22:43:53;7.90;;;6.28;;
75758;SDS011;64371;47.566;19.086;2023-05-14T22:46:56;9.37;;;6.27;;
75758;SDS011;64371;47.566;19.086;2023-05-14T22:49:58;8.98;;;6.13;;
75758;SDS011;64371;47.566;19.086;2023-05-14T22:53:01;8.88;;;6.10;;
75758;SDS011;64371;47.566;19.086;2023-05-14T22:56:03;8.23;;;6.15;;
75758;SDS011;64371;47.566;19.086;2023-05-14T22:59:06;7.95;;;6.07;;
75758;SDS011;64371;47.566;19.086;2023-05-14T23:02:08;9.33;;;6.20;;
75758;SDS011;64371;47.566;19.086;2023-05-14T23:05:11;10.05;;;7.40;;
75758;SDS011;64371;47.566;19.086;2023-05-14T23:08:13;10.52;;;7.03;;
75758;SDS011;64371;47.566;19.086;2023-05-14T23:11:16;9.75;;;7.30;;
75758;SDS011;64371;47.566;19.086;2023-05-14T23:14:18;9.35;;;7.40;;
75758;SDS011;64371;47.566;19.086;2023-05-14T23:17:20;10.67;;;7.90;;
75758;SDS011;64371;47.566;19.086;2023-05-14T23:20:26;10.48;;;7.95;;
75758;SDS011;64371;47.566;19.086;2023-05-14T23:23:28;12.73;;;8.43;;
75758;SDS011;64371;47.566;19.086;2023-05-14T23:26:30;14.10;;;9.32;;
75758;SDS011;64371;47.566;19.086;2023-05-14T23:29:33;13.65;;;9.85;;
75758;SDS011;64371;47.566;19.086;2023-05-14T23:32:35;13.73;;;10.13;;
75758;SDS011;64371;47.566;19.086;2023-05-14T23:35:38;15.15;;;10.75;;
75758;SDS011;64371;47.566;19.086;2023-05-14T23:38:41;17.45;;;10.23;;
75758;SDS011;64371;47.566;19.086;2023-05-14T23:41:44;15.20;;;10.60;;
75758;SDS011;64371;47.566;19.086;2023-05-14T23:44:46;13.90;;;10.50;;
75758;SDS011;64371;47.566;19.086;2023-05-14T23:47:48;17.60;;;11.37;;
75758;SDS011;64371;47.566;19.086;2023-05-14T23:50:51;13.35;;;10.52;;
75758;SDS011;64371;47.566;19.086;2023-05-14T23:53:53;14.38;;;9.75;;